Time;durP1;ratioP1;P1;durP2;ratioP2;P2;SDS_P1;SDS_P2;PMS_P1;PMS_P2;Temp;Humidity;BMP_temperature;BMP_pressure;BME280_temperature;BME280_humidity;BME280_pressure;Samples;Min_cycle;Max_cycle;Signal;HPM_P1;HPM_P2
2022/07/17 00:00:20;;;;;;;4.20;2.50;;;;;;;14.16;100.00;96583.34;1030930;28;20030;-73
2022/07/17 00:00:51;;;;;;;5.22;2.47;;;;;;;14.10;100.00;96569.34;1030090;28;20034;-74
2022/07/17 00:01:21;;;;;;;2.70;2.50;;;;;;;14.15;100.00;96573.81;1033572;28;20026;-73
2022/07/17 00:01:52;;;;;;;3.40;2.40;;;;;;;14.15;100.00;96582.53;1026584;28;20091;-74
2022/07/17 00:02:22;;;;;;;6.90;3.53;;;;;;;14.10;100.00;96579.09;1030283;28;20489;-73
2022/07/17 00:02:53;;;;;;;4.85;2.72;;;;;;;13.95;100.00;96547.41;1034388;28;20064;-73
2022/07/17 00:03:23;;;;;;;3.30;2.63;;;;;;;14.07;100.00;96574.34;1034687;28;20037;-73
2022/07/17 00:03:54;;;;;;;2.92;2.30;;;;;;;14.08;100.00;96589.94;1034314;28;20022;-73
2022/07/17 00:04:24;;;;;;;3.20;2.50;;;;;;;14.02;100.00;96571.72;1022473;28;20059;-73
2022/07/17 00:04:55;;;;;;;4.13;2.58;;;;;;;14.08;100.00;96586.47;1030273;28;20027;-73
2022/07/17 00:05:26;;;;;;;3.78;2.33;;;;;;;14.05;100.00;96587.00;1030442;28;20070;-74
2022/07/17 00:05:56;;;;;;;4.40;2.65;;;;;;;14.06;100.00;96588.59;1034670;28;20497;-72
2022/07/17 00:06:27;;;;;;;2.45;2.20;;;;;;;13.97;100.00;96569.84;1038490;28;20119;-73
2022/07/17 00:06:57;;;;;;;3.90;2.70;;;;;;;14.05;100.00;96582.53;1038468;28;20052;-75
2022/07/17 00:07:28;;;;;;;3.38;2.05;;;;;;;14.06;100.00;96581.47;1032728;28;20045;-73
2022/07/17 00:07:58;;;;;;;4.22;2.45;;;;;;;14.06;100.00;96580.69;1028745;28;20073;-73
2022/07/17 00:08:30;;;;;;;5.15;2.45;;;;;;;14.06;100.00;96588.59;1030251;28;20533;-73
2022/07/17 00:09:01;;;;;;;3.10;2.22;;;;;;;14.06;100.00;96583.34;1026864;28;20027;-74
2022/07/17 00:09:31;;;;;;;4.00;2.67;;;;;;;14.05;100.00;96589.66;1027906;28;20027;-75
2022/07/17 00:10:02;;;;;;;3.72;2.50;;;;;;;14.01;100.00;96581.47;1026539;28;20418;-73
2022/07/17 00:10:33;;;;;;;7.07;2.58;;;;;;;14.01;100.00;96592.03;1030288;28;20105;-76
2022/07/17 00:11:04;;;;;;;4.10;2.55;;;;;;;13.99;100.00;96590.72;1029672;28;20037;-71
2022/07/17 00:11:43;;;;;;;5.20;2.47;;;;;;;13.98;100.00;96584.63;1023039;28;20031;-73
2022/07/17 00:12:14;;;;;;;3.35;2.50;;;;;;;13.96;100.00;96583.31;1023182;29;20481;-76
2022/07/17 00:12:44;;;;;;;4.18;2.70;;;;;;;13.87;100.00;96575.91;1022921;29;20034;-73
2022/07/17 00:13:15;;;;;;;4.18;2.65;;;;;;;13.96;100.00;96588.59;1023703;28;20086;-73
2022/07/17 00:13:45;;;;;;;5.20;2.45;;;;;;;13.96;100.00;96591.25;1024440;28;20055;-73
2022/07/17 00:14:16;;;;;;;2.78;2.50;;;;;;;13.96;100.00;96588.59;1031406;28;20041;-74
2022/07/17 00:14:46;;;;;;;6.55;2.70;;;;;;;13.94;100.00;96585.44;1040839;28;20125;-74
2022/07/17 00:15:17;;;;;;;4.32;2.97;;;;;;;13.91;100.00;96587.53;1031171;28;20513;-74
2022/07/17 00:15:47;;;;;;;2.67;2.42;;;;;;;13.91;100.00;96586.72;1026983;28;20203;-73
2022/07/17 00:16:18;;;;;;;3.03;2.72;;;;;;;13.90;100.00;96593.06;1027220;28;20422;-74
2022/07/17 00:16:48;;;;;;;3.50;2.38;;;;;;;13.82;100.00;96583.06;1031253;28;20346;-73
2022/07/17 00:17:19;;;;;;;5.20;2.60;;;;;;;13.86;100.00;96590.16;1035119;28;20049;-75
2022/07/17 00:17:49;;;;;;;5.43;2.25;;;;;;;13.85;100.00;96591.22;1031051;28;20505;-73
2022/07/17 00:18:19;;;;;;;3.95;2.63;;;;;;;13.85;100.00;96596.50;1031037;28;20022;-74
2022/07/17 00:18:50;;;;;;;6.15;2.47;;;;;;;13.77;100.00;96581.19;1031213;28;20041;-76
2022/07/17 00:19:20;;;;;;;6.10;3.17;;;;;;;13.83;100.00;96595.97;1035254;28;20030;-73
2022/07/17 00:19:51;;;;;;;4.82;2.75;;;;;;;13.83;100.00;96597.81;1043311;28;20032;-73
2022/07/17 00:20:25;;;;;;;3.17;2.40;;;;;;;13.83;100.00;96595.19;1035245;28;20033;-73
2022/07/17 00:20:58;;;;;;;5.18;2.40;;;;;;;13.80;100.00;96596.50;1035678;28;20044;-73
2022/07/17 00:21:29;;;;;;;3.10;2.28;;;;;;;13.74;100.00;96586.97;1029946;28;20218;-75
2022/07/17 00:21:59;;;;;;;2.85;2.53;;;;;;;13.78;100.00;96590.69;1028820;28;20643;-73
2022/07/17 00:22:29;;;;;;;3.33;2.30;;;;;;;13.77;100.00;96585.66;1027002;28;20029;-73
2022/07/17 00:23:04;;;;;;;3.65;2.35;;;;;;;13.76;100.00;96589.38;1030815;28;20505;-74
2022/07/17 00:23:34;;;;;;;6.15;2.50;;;;;;;13.76;100.00;96595.44;1027033;28;20034;-74
2022/07/17 00:24:06;;;;;;;7.60;2.90;;;;;;;13.76;100.00;96595.44;1032621;28;20081;-75
2022/07/17 00:24:36;;;;;;;7.40;2.90;;;;;;;13.75;100.00;96593.84;1043309;28;20036;-74
2022/07/17 00:25:07;;;;;;;5.60;2.63;;;;;;;13.74;100.00;96589.63;1039240;28;20026;-74
2022/07/17 00:25:37;;;;;;;3.38;2.42;;;;;;;13.72;100.00;96594.38;1043118;28;20021;-73
2022/07/17 00:26:08;;;;;;;13.18;3.20;;;;;;;13.72;100.00;96590.94;1043267;28;20455;-77
2022/07/17 00:26:39;;;;;;;6.43;2.60;;;;;;;13.64;100.00;96586.97;1039146;28;20022;-73
2022/07/17 00:27:09;;;;;;;4.78;2.42;;;;;;;13.70;100.00;96600.97;1035011;28;20018;-73
2022/07/17 00:27:39;;;;;;;7.88;3.90;;;;;;;13.68;100.00;96590.66;1034884;28;20033;-72
2022/07/17 00:28:11;;;;;;;6.35;2.88;;;;;;;13.69;100.00;96597.53;1031010;28;20058;-74
2022/07/17 00:28:41;;;;;;;6.40;2.63;;;;;;;13.67;100.00;96597.00;1027277;28;20025;-73
2022/07/17 00:29:12;;;;;;;3.00;2.42;;;;;;;13.66;100.00;96601.47;1035195;28;20040;-73
2022/07/17 00:29:42;;;;;;;4.40;2.58;;;;;;;13.66;100.00;96596.19;1031104;28;20182;-74
2022/07/17 00:30:13;;;;;;;7.82;2.70;;;;;;;13.64;100.00;96592.22;1035104;28;20018;-73
2022/07/17 00:30:43;;;;;;;8.80;3.38;;;;;;;13.64;100.00;96593.03;1039129;28;20036;-73
2022/07/17 00:31:14;;;;;;;6.25;2.92;;;;;;;13.64;100.00;96597.50;1034568;28;20025;-73
2022/07/17 00:31:44;;;;;;;9.00;2.72;;;;;;;13.58;100.00;96588.81;1034286;28;20553;-76
2022/07/17 00:32:18;;;;;;;3.63;2.95;;;;;;;13.64;100.00;96598.28;1030974;28;20014;-74
2022/07/17 00:32:48;;;;;;;6.55;2.85;;;;;;;13.63;100.00;96591.44;1031476;28;20023;-75
2022/07/17 00:33:19;;;;;;;10.90;3.45;;;;;;;13.64;100.00;96597.50;1035019;28;20045;-75
2022/07/17 00:33:49;;;;;;;4.53;2.63;;;;;;;13.63;100.00;96595.94;1031278;28;20086;-73
2022/07/17 00:34:19;;;;;;;7.20;2.80;;;;;;;13.62;100.00;96599.63;1039183;28;20598;-73
2022/07/17 00:34:50;;;;;;;6.05;2.58;;;;;;;13.62;100.00;96599.63;1035349;28;20032;-74
2022/07/17 00:35:24;;;;;;;4.10;2.35;;;;;;;13.62;100.00;96600.41;1039026;28;20108;-74
2022/07/17 00:35:54;;;;;;;3.75;2.55;;;;;;;13.62;100.00;96599.63;1034981;28;20311;-74
2022/07/17 00:36:25;;;;;;;3.15;2.28;;;;;;;13.61;100.00;96598.03;1035608;28;20461;-73
2022/07/17 00:36:58;;;;;;;5.88;3.20;;;;;;;13.58;100.00;96599.38;1038969;28;20030;-73
2022/07/17 00:37:29;;;;;;;4.15;2.75;;;;;;;13.58;100.00;96593.28;1040790;28;20017;-77
2022/07/17 00:38:02;;;;;;;3.67;2.30;;;;;;;13.58;100.00;96603.81;1043139;28;20017;-73
2022/07/17 00:38:33;;;;;;;5.10;2.33;;;;;;;13.57;100.00;96595.13;1039094;28;20024;-73
2022/07/17 00:39:03;;;;;;;2.85;2.45;;;;;;;13.56;100.00;96596.19;1035035;28;20029;-73
2022/07/17 00:39:34;;;;;;;4.10;2.47;;;;;;;13.55;100.00;96596.44;1031593;28;20019;-73
2022/07/17 00:40:05;;;;;;;3.88;2.63;;;;;;;13.55;100.00;96597.25;1030965;28;20397;-75
2022/07/17 00:40:36;;;;;;;4.80;2.40;;;;;;;13.55;100.00;96599.09;1035227;28;20113;-73
2022/07/17 00:41:06;;;;;;;2.92;2.40;;;;;;;13.55;100.00;96599.88;1038753;28;20032;-75
2022/07/17 00:41:37;;;;;;;4.57;2.30;;;;;;;13.55;100.00;96599.09;1035038;28;20488;-74
2022/07/17 00:42:13;;;;;;;2.78;2.22;;;;;;;13.54;100.00;96602.75;1034628;28;20029;-73
2022/07/17 00:42:44;;;;;;;4.88;2.30;;;;;;;13.54;100.00;96600.13;1027077;28;20026;-73
2022/07/17 00:43:17;;;;;;;5.60;2.42;;;;;;;13.51;100.00;96595.38;1027936;28;20111;-75
2022/07/17 00:43:47;;;;;;;9.77;3.25;;;;;;;13.50;100.00;96597.22;1033444;28;20038;-73
2022/07/17 00:44:18;;;;;;;6.97;2.88;;;;;;;13.44;100.00;96590.34;1035830;28;20311;-72
2022/07/17 00:44:48;;;;;;;6.75;2.55;;;;;;;13.48;100.00;96596.69;1039127;28;20052;-76
2022/07/17 00:45:19;;;;;;;5.70;2.53;;;;;;;13.49;100.00;96605.41;1039160;28;20022;-77
2022/07/17 00:45:57;;;;;;;5.45;2.85;;;;;;;13.46;100.00;96595.38;1035085;28;20107;-73
2022/07/17 00:46:28;;;;;;;6.55;2.78;;;;;;;13.42;100.00;96587.19;1040151;28;20017;-73
2022/07/17 00:46:58;;;;;;;3.45;2.38;;;;;;;13.48;100.00;96599.34;1034970;28;20026;-73
2022/07/17 00:47:28;;;;;;;4.22;2.13;;;;;;;13.43;100.00;96589.53;1036122;28;20030;-76
2022/07/17 00:48:03;;;;;;;3.15;2.50;;;;;;;13.47;100.00;96589.03;1022941;28;20404;-75
2022/07/17 00:48:34;;;;;;;2.80;2.50;;;;;;;13.45;100.00;96594.56;1027865;28;20031;-73
2022/07/17 00:49:05;;;;;;;4.85;2.60;;;;;;;13.46;100.00;96595.38;1030932;28;20549;-73
2022/07/17 00:49:35;;;;;;;4.57;2.72;;;;;;;13.44;100.00;96591.13;1028394;28;20033;-73
2022/07/17 00:50:06;;;;;;;4.20;2.55;;;;;;;13.44;100.00;96600.88;1034852;28;20493;-74
2022/07/17 00:50:40;;;;;;;3.22;2.50;;;;;;;13.43;100.00;96594.03;1031044;28;20026;-73
2022/07/17 00:51:11;;;;;;;8.15;2.53;;;;;;;13.41;100.00;96591.66;1039247;28;20021;-75
2022/07/17 00:51:41;;;;;;;4.22;2.72;;;;;;;13.39;100.00;96596.41;1043137;28;20029;-73
2022/07/17 00:52:12;;;;;;;5.55;2.90;;;;;;;13.39;100.00;96596.41;1043717;28;20070;-73
2022/07/17 00:52:42;;;;;;;4.65;2.80;;;;;;;13.37;100.00;96598.50;1042976;28;20036;-73
2022/07/17 00:53:13;;;;;;;6.30;3.25;;;;;;;13.38;100.00;96600.09;1034930;28;20053;-74
2022/07/17 00:53:43;;;;;;;4.07;2.75;;;;;;;13.37;100.00;96598.50;1035062;28;20032;-75
2022/07/17 00:54:14;;;;;;;5.43;2.70;;;;;;;13.35;100.00;96597.97;1027109;28;20599;-73
2022/07/17 00:54:45;;;;;;;3.28;2.55;;;;;;;13.33;100.00;96592.16;1021309;28;20034;-74
2022/07/17 00:55:16;;;;;;;3.97;3.00;;;;;;;13.28;100.00;96583.44;1030870;28;20022;-73
2022/07/17 00:55:50;;;;;;;4.28;2.55;;;;;;;13.32;100.00;96590.56;1034820;28;20022;-73
2022/07/17 00:56:21;;;;;;;4.35;2.45;;;;;;;13.30;100.00;96592.66;1028239;28;20019;-72
2022/07/17 00:56:51;;;;;;;4.80;2.60;;;;;;;13.24;100.00;96591.06;1018788;29;20410;-73
2022/07/17 00:57:21;;;;;;;2.83;2.53;;;;;;;13.28;100.00;96593.97;1025083;28;20030;-71
2022/07/17 00:57:54;;;;;;;5.32;2.80;;;;;;;13.30;100.00;96597.16;1026999;28;20038;-74
2022/07/17 00:58:25;;;;;;;3.30;2.80;;;;;;;13.28;100.00;96599.25;1027104;28;20418;-71
2022/07/17 00:58:56;;;;;;;8.23;2.70;;;;;;;13.28;100.00;96594.78;1027040;28;20517;-74
2022/07/17 00:59:26;;;;;;;6.57;2.40;;;;;;;13.20;100.00;96572.31;1030887;28;20259;-73
2022/07/17 00:59:57;;;;;;;10.43;3.45;;;;;;;13.27;100.00;96590.53;1022849;29;20360;-71
2022/07/17 01:00:27;;;;;;;7.78;2.80;;;;;;;13.27;100.00;96595.81;1022961;29;20491;-75
2022/07/17 01:00:58;;;;;;;3.72;2.40;;;;;;;13.25;100.00;96589.25;1022832;28;20573;-71
2022/07/17 01:01:29;;;;;;;5.80;2.60;;;;;;;13.24;100.00;96587.59;1022530;28;20031;-71
2022/07/17 01:02:03;;;;;;;4.80;2.80;;;;;;;13.24;100.00;96591.06;1027276;28;20122;-72
2022/07/17 01:02:33;;;;;;;5.25;2.60;;;;;;;13.25;100.00;96590.03;1033084;28;20571;-70
2022/07/17 01:03:04;;;;;;;3.30;2.65;;;;;;;13.24;100.00;96590.25;1031333;28;20053;-74
2022/07/17 01:03:34;;;;;;;4.20;2.60;;;;;;;13.18;100.00;96578.91;1035605;28;20034;-73
2022/07/17 01:04:05;;;;;;;4.25;2.50;;;;;;;13.23;100.00;96591.31;1030727;28;20037;-74
2022/07/17 01:04:35;;;;;;;5.60;2.78;;;;;;;13.18;100.00;96579.69;1030928;28;20417;-75
2022/07/17 01:05:06;;;;;;;7.22;3.30;;;;;;;13.20;100.00;96590.75;1022791;29;20023;-72
2022/07/17 01:05:36;;;;;;;7.10;3.03;;;;;;;13.24;100.00;96591.06;1022906;28;20183;-73
2022/07/17 01:06:07;;;;;;;5.50;3.28;;;;;;;13.21;100.00;96587.09;1023204;28;20581;-73
2022/07/17 01:06:37;;;;;;;4.70;2.50;;;;;;;13.21;100.00;96583.63;1027041;28;20042;-75
2022/07/17 01:07:08;;;;;;;4.80;2.70;;;;;;;13.21;100.00;96578.38;1030872;28;20037;-75
2022/07/17 01:07:38;;;;;;;4.10;3.08;;;;;;;13.19;100.00;96581.28;1030143;28;20045;-73
2022/07/17 01:08:09;;;;;;;2.83;2.40;;;;;;;13.21;100.00;96581.00;1030825;28;20069;-73
2022/07/17 01:08:39;;;;;;;4.28;2.38;;;;;;;13.14;100.00;96573.34;1030954;28;20062;-76
2022/07/17 01:09:10;;;;;;;6.38;2.97;;;;;;;13.18;100.00;96578.91;1024404;28;20051;-73
2022/07/17 01:09:41;;;;;;;3.28;2.70;;;;;;;13.21;100.00;96583.63;1020980;29;20388;-74
2022/07/17 01:10:12;;;;;;;3.33;2.63;;;;;;;13.19;100.00;96580.47;1023000;29;20065;-75
2022/07/17 01:10:42;;;;;;;4.45;2.90;;;;;;;13.12;100.00;96569.38;1022865;29;20158;-73
2022/07/17 01:11:12;;;;;;;3.67;2.60;;;;;;;13.18;100.00;96584.97;1023075;28;20147;-73
2022/07/17 01:11:43;;;;;;;3.25;2.95;;;;;;;13.18;100.00;96587.59;1026730;28;20031;-73
2022/07/17 01:12:13;;;;;;;3.58;2.90;;;;;;;13.17;100.00;96585.22;1026866;28;20853;-75
2022/07/17 01:12:44;;;;;;;3.42;2.53;;;;;;;13.19;100.00;96588.38;1027026;28;20027;-73
2022/07/17 01:13:15;;;;;;;2.60;2.40;;;;;;;13.18;100.00;96581.53;1033862;28;20108;-72
2022/07/17 01:13:45;;;;;;;6.20;2.65;;;;;;;13.18;100.00;96581.53;1030812;28;20030;-73
2022/07/17 01:14:16;;;;;;;6.50;2.55;;;;;;;13.17;100.00;96580.72;1031019;28;20062;-73
2022/07/17 01:14:47;;;;;;;4.60;2.70;;;;;;;13.15;100.00;96589.97;1030490;28;20030;-74
2022/07/17 01:15:17;;;;;;;3.72;2.83;;;;;;;13.11;100.00;96579.16;1034624;28;20030;-73
2022/07/17 01:15:48;;;;;;;4.68;2.78;;;;;;;13.15;100.00;96582.06;1030775;28;20066;-73
2022/07/17 01:16:18;;;;;;;3.08;2.67;;;;;;;13.12;100.00;96580.72;1034675;28;20069;-74
2022/07/17 01:16:50;;;;;;;5.53;3.20;;;;;;;13.13;100.00;96578.88;1030893;28;20060;-74
2022/07/17 01:17:20;;;;;;;3.95;2.38;;;;;;;13.14;100.00;96586.50;1026771;28;20093;-73
2022/07/17 01:17:51;;;;;;;4.00;2.88;;;;;;;13.06;100.00;96571.19;1030852;28;20375;-72
2022/07/17 01:18:22;;;;;;;3.13;2.67;;;;;;;13.09;100.00;96581.22;1023314;28;20126;-75
2022/07/17 01:18:53;;;;;;;5.25;2.80;;;;;;;13.12;100.00;96587.84;1026997;28;20395;-73
2022/07/17 01:19:24;;;;;;;5.63;2.80;;;;;;;13.06;100.00;96573.06;1026647;28;20034;-72
2022/07/17 01:19:54;;;;;;;3.35;2.75;;;;;;;13.12;100.00;96585.19;1031291;28;20034;-72
2022/07/17 01:20:25;;;;;;;8.70;3.08;;;;;;;13.04;100.00;96572.50;1039128;28;20037;-73
2022/07/17 01:20:55;;;;;;;4.72;3.17;;;;;;;13.11;100.00;96583.59;1039163;28;20178;-73
2022/07/17 01:21:25;;;;;;;4.88;3.20;;;;;;;13.09;100.00;96594.41;1033875;28;20373;-73
2022/07/17 01:21:56;;;;;;;5.70;2.90;;;;;;;13.09;100.00;96588.34;1026470;28;20077;-74
2022/07/17 01:22:26;;;;;;;4.38;2.67;;;;;;;13.09;100.00;96586.50;1026853;28;20031;-73
2022/07/17 01:22:57;;;;;;;5.13;2.88;;;;;;;13.06;100.00;96580.94;1030102;28;20029;-72
2022/07/17 01:23:28;;;;;;;8.60;3.65;;;;;;;13.09;100.00;96588.34;1030547;28;20260;-74
2022/07/17 01:23:58;;;;;;;3.60;2.65;;;;;;;13.08;100.00;96590.19;1034825;28;20022;-72
2022/07/17 01:24:29;;;;;;;6.35;3.10;;;;;;;13.08;100.00;96597.31;1034886;28;20033;-73
2022/07/17 01:25:00;;;;;;;5.75;2.72;;;;;;;13.08;100.00;96595.47;1030957;28;20038;-73
2022/07/17 01:25:31;;;;;;;5.82;3.40;;;;;;;13.07;100.00;96601.75;1034899;28;20026;-76
2022/07/17 01:26:01;;;;;;;7.10;3.35;;;;;;;13.06;100.00;96594.91;1026836;28;20042;-73
2022/07/17 01:26:31;;;;;;;3.15;2.85;;;;;;;13.08;100.00;96597.31;1027194;28;20031;-73
2022/07/17 01:27:02;;;;;;;4.22;3.00;;;;;;;13.09;100.00;96597.03;1034909;28;20026;-75
2022/07/17 01:27:33;;;;;;;6.82;2.70;;;;;;;13.09;100.00;96593.63;1035092;28;20036;-73
2022/07/17 01:28:03;;;;;;;5.15;3.15;;;;;;;13.06;100.00;96597.56;1042887;28;20037;-73
2022/07/17 01:28:34;;;;;;;5.45;3.00;;;;;;;13.06;100.00;96596.75;1030579;28;20033;-74
2022/07/17 01:29:04;;;;;;;4.95;2.88;;;;;;;13.06;100.00;96599.41;1026709;28;20117;-73
2022/07/17 01:29:36;;;;;;;5.05;2.83;;;;;;;13.03;100.00;96592.00;1030694;28;20120;-75
2022/07/17 01:30:07;;;;;;;4.68;3.20;;;;;;;12.98;100.00;96587.50;1022351;29;20404;-73
2022/07/17 01:30:45;;;;;;;8.95;3.50;;;;;;;13.02;100.00;96595.69;1026798;28;20026;-73
2022/07/17 01:31:15;;;;;;;8.07;3.10;;;;;;;12.97;100.00;96584.06;1026157;28;20062;-72
2022/07/17 01:31:46;;;;;;;8.48;3.10;;;;;;;13.03;100.00;96599.91;1026413;28;20580;-74
2022/07/17 01:32:16;;;;;;;8.23;3.30;;;;;;;13.01;100.00;96596.72;1028673;28;20082;-74
2022/07/17 01:32:47;;;;;;;3.92;2.97;;;;;;;12.94;100.00;96587.22;1035065;28;20018;-73
2022/07/17 01:33:17;;;;;;;4.35;3.15;;;;;;;12.92;100.00;96585.91;1038902;28;20014;-73
2022/07/17 01:33:48;;;;;;;4.47;3.17;;;;;;;12.98;100.00;96600.69;1034840;28;20075;-72
2022/07/17 01:34:19;;;;;;;5.38;2.80;;;;;;;13.00;100.00;96597.78;1030733;28;20031;-73
2022/07/17 01:34:49;;;;;;;5.30;2.80;;;;;;;12.97;100.00;96599.88;1023074;28;20023;-73
2022/07/17 01:35:22;;;;;;;3.65;2.58;;;;;;;12.93;100.00;96590.91;1026974;28;20019;-73
2022/07/17 01:35:53;;;;;;;6.88;3.20;;;;;;;12.98;100.00;96601.47;1030718;28;20010;-73
2022/07/17 01:36:24;;;;;;;4.10;2.92;;;;;;;12.92;100.00;96586.69;1031078;28;20022;-73
2022/07/17 01:36:54;;;;;;;3.67;2.78;;;;;;;12.99;100.00;96607.53;1030642;28;20661;-73
2022/07/17 01:37:24;;;;;;;7.07;2.88;;;;;;;12.95;100.00;96594.09;1031323;28;20023;-72
2022/07/17 01:37:55;;;;;;;5.68;2.78;;;;;;;12.98;100.00;96596.22;1026950;28;20498;-73
2022/07/17 01:38:25;;;;;;;4.80;2.95;;;;;;;13.01;100.00;96594.09;1022479;28;20074;-73
2022/07/17 01:38:56;;;;;;;5.72;3.05;;;;;;;13.03;100.00;96599.91;1022890;29;20030;-74
2022/07/17 01:40:16;;;;;;;5.35;2.78;;;;;;;13.04;100.00;96606.75;1035805;28;20014;-72
2022/07/17 01:40:46;;;;;;;6.75;2.95;;;;;;;13.02;100.00;96604.38;1037513;28;20446;-77
2022/07/17 01:41:17;;;;;;;5.00;3.03;;;;;;;12.94;100.00;96589.88;1041000;28;20013;-73
2022/07/17 01:41:50;;;;;;;6.05;2.83;;;;;;;13.02;100.00;96600.97;1034704;28;20148;-75
2022/07/17 01:42:21;;;;;;;7.55;3.50;;;;;;;12.96;100.00;96600.13;1034765;28;20640;-73
2022/07/17 01:42:52;;;;;;;6.45;3.33;;;;;;;13.01;100.00;96602.00;1034817;28;20022;-73
2022/07/17 01:43:22;;;;;;;4.38;2.95;;;;;;;13.00;100.00;96601.22;1035297;28;20034;-77
2022/07/17 01:43:53;;;;;;;6.82;3.33;;;;;;;12.97;100.00;96599.09;1038868;28;20084;-73
2022/07/17 01:44:23;;;;;;;5.43;3.00;;;;;;;12.96;100.00;96595.66;1039003;28;20316;-73
2022/07/17 01:44:54;;;;;;;4.78;2.95;;;;;;;12.92;100.00;96597.22;1043043;28;20316;-73
2022/07/17 01:45:25;;;;;;;3.72;3.20;;;;;;;12.93;100.00;96600.66;1034668;28;20030;-75
2022/07/17 01:45:56;;;;;;;7.60;3.72;;;;;;;12.92;100.00;96599.06;1030921;28;20501;-73
2022/07/17 01:46:26;;;;;;;4.20;2.83;;;;;;;12.87;100.00;96599.81;1030587;28;20066;-75
2022/07/17 01:47:00;;;;;;;4.70;2.88;;;;;;;12.82;100.00;96596.38;1030778;28;20138;-72
2022/07/17 01:47:30;;;;;;;4.72;2.70;;;;;;;12.88;100.00;96605.91;1031559;28;20038;-73
2022/07/17 01:48:01;;;;;;;4.43;2.78;;;;;;;12.87;100.00;96605.09;1038878;28;20052;-75
2022/07/17 01:48:31;;;;;;;4.88;2.97;;;;;;;12.85;100.00;96596.66;1034938;28;20034;-72
2022/07/17 01:49:02;;;;;;;6.65;3.08;;;;;;;12.83;100.00;96597.97;1034708;28;20077;-72
2022/07/17 01:49:32;;;;;;;3.50;2.88;;;;;;;12.83;100.00;96600.59;1034813;28;20121;-74
2022/07/17 01:50:03;;;;;;;7.03;2.70;;;;;;;12.81;100.00;96590.31;1030808;28;20061;-73
2022/07/17 01:50:34;;;;;;;3.53;2.83;;;;;;;12.74;100.00;96589.72;1030526;28;20470;-73
2022/07/17 01:51:04;;;;;;;3.58;3.00;;;;;;;12.78;100.00;96601.38;1026382;28;20035;-76
2022/07/17 01:51:35;;;;;;;3.75;2.95;;;;;;;12.78;100.00;96596.09;1026659;28;20022;-73
2022/07/17 01:52:05;;;;;;;4.88;2.80;;;;;;;12.77;100.00;96597.13;1022801;28;20069;-72
2022/07/17 01:52:37;;;;;;;4.47;2.70;;;;;;;12.76;100.00;96595.56;1030775;28;20935;-73
2022/07/17 01:53:08;;;;;;;4.45;3.20;;;;;;;12.75;100.00;96596.59;1034923;28;20041;-72
2022/07/17 01:53:38;;;;;;;3.75;2.35;;;;;;;12.73;100.00;96598.69;1039329;28;20037;-73
2022/07/17 01:54:08;;;;;;;7.55;3.13;;;;;;;12.73;100.00;96588.94;1042734;28;20017;-72
2022/07/17 01:54:39;;;;;;;5.35;2.85;;;;;;;12.72;100.00;96597.91;1041334;28;20726;-77
2022/07/17 01:55:11;;;;;;;4.07;2.80;;;;;;;12.68;100.00;96590.78;1038693;28;20119;-73
2022/07/17 01:55:42;;;;;;;4.68;2.85;;;;;;;12.71;100.00;96595.53;1026716;28;20026;-73
2022/07/17 01:56:12;;;;;;;4.20;2.97;;;;;;;12.70;100.00;96596.56;1029132;28;20074;-72
2022/07/17 01:56:42;;;;;;;3.90;2.83;;;;;;;12.73;100.00;96598.69;1026665;28;20038;-73
2022/07/17 01:57:13;;;;;;;5.45;3.20;;;;;;;12.69;100.00;96592.34;1025175;28;20063;-76
2022/07/17 01:57:44;;;;;;;4.35;2.80;;;;;;;12.62;100.00;96584.69;1030579;28;20026;-73
2022/07/17 01:58:14;;;;;;;5.70;3.00;;;;;;;12.65;100.00;96586.03;1030708;28;20092;-73
2022/07/17 01:58:45;;;;;;;4.43;2.78;;;;;;;12.70;100.00;96599.19;1038693;28;20025;-72
2022/07/17 01:59:18;;;;;;;3.05;2.53;;;;;;;12.70;100.00;96604.47;1034682;28;20108;-73
2022/07/17 01:59:48;;;;;;;3.17;2.58;;;;;;;12.69;100.00;96595.78;1038779;28;20032;-74
2022/07/17 02:00:21;;;;;;;3.22;2.80;;;;;;;12.61;100.00;96585.72;1039386;28;20041;-73
2022/07/17 02:00:52;;;;;;;4.57;2.80;;;;;;;12.69;100.00;96597.63;1039348;28;20029;-73
2022/07/17 02:01:22;;;;;;;3.67;3.10;;;;;;;12.67;100.00;96597.84;1042175;28;20498;-72
2022/07/17 02:01:53;;;;;;;4.97;2.75;;;;;;;12.69;100.00;96602.88;1042810;28;20070;-73
2022/07/17 02:02:23;;;;;;;4.88;3.53;;;;;;;12.68;100.00;96591.56;1038858;28;20036;-74
2022/07/17 02:02:53;;;;;;;6.30;3.70;;;;;;;12.67;100.00;96597.06;1034287;28;20406;-72
2022/07/17 02:03:24;;;;;;;3.17;2.55;;;;;;;12.67;100.00;96602.34;1026136;28;20022;-72
2022/07/17 02:03:54;;;;;;;5.43;3.42;;;;;;;12.66;100.00;96592.88;1026335;28;20026;-74
2022/07/17 02:04:25;;;;;;;4.30;2.85;;;;;;;12.62;100.00;96595.22;1030831;28;20524;-73
2022/07/17 02:04:55;;;;;;;5.03;3.20;;;;;;;12.61;100.00;96598.09;1030552;28;20121;-73
2022/07/17 02:05:26;;;;;;;3.40;2.67;;;;;;;12.60;100.00;96604.41;1038566;28;20308;-75
2022/07/17 02:05:56;;;;;;;4.75;3.00;;;;;;;12.58;100.00;96595.97;1038540;28;20421;-73
2022/07/17 02:06:27;;;;;;;3.00;2.60;;;;;;;12.54;100.00;96597.50;1030582;28;20015;-74
2022/07/17 02:06:57;;;;;;;4.00;2.80;;;;;;;12.55;100.00;96596.50;1030467;28;20026;-72
2022/07/17 02:07:27;;;;;;;3.88;3.00;;;;;;;12.56;100.00;96598.06;1028596;28;20069;-74
2022/07/17 02:07:58;;;;;;;6.22;3.40;;;;;;;12.54;100.00;96594.88;1026534;28;20446;-72
2022/07/17 02:08:28;;;;;;;7.85;3.30;;;;;;;12.55;100.00;96593.84;1026553;28;20050;-72
2022/07/17 02:08:59;;;;;;;3.70;3.00;;;;;;;12.56;100.00;96598.06;1030370;28;20023;-75
2022/07/17 02:09:29;;;;;;;3.75;2.95;;;;;;;12.46;100.00;96589.03;1028803;28;20465;-73
2022/07/17 02:10:00;;;;;;;3.05;2.70;;;;;;;12.50;100.00;96600.66;1025679;28;20034;-73
2022/07/17 02:10:34;;;;;;;9.75;4.05;;;;;;;12.51;100.00;96604.09;1018524;29;20118;-74
2022/07/17 02:11:04;;;;;;;4.47;3.25;;;;;;;12.47;100.00;96601.19;1018075;29;20035;-71
2022/07/17 02:11:35;;;;;;;5.57;2.92;;;;;;;12.47;100.00;96595.91;1025534;28;20034;-74
2022/07/17 02:12:05;;;;;;;5.18;3.20;;;;;;;12.45;100.00;96598.00;1027578;28;20522;-73
2022/07/17 02:12:36;;;;;;;6.47;3.00;;;;;;;12.45;100.00;96600.63;1031102;28;20038;-73
2022/07/17 02:13:06;;;;;;;5.28;3.00;;;;;;;12.38;100.00;96589.53;1030558;28;20030;-73
2022/07/17 02:13:37;;;;;;;8.10;3.53;;;;;;;12.39;100.00;96595.59;1026416;28;20035;-72
2022/07/17 02:14:07;;;;;;;6.38;2.95;;;;;;;12.42;100.00;96597.72;1026587;28;20073;-72
2022/07/17 02:14:38;;;;;;;5.90;3.28;;;;;;;12.41;100.00;96596.91;1026475;28;20188;-75
2022/07/17 02:15:08;;;;;;;4.18;3.20;;;;;;;12.41;100.00;96596.91;1030741;28;20033;-73
2022/07/17 02:15:40;;;;;;;5.35;2.85;;;;;;;12.30;100.00;96579.44;1034575;28;20121;-73
2022/07/17 02:16:12;;;;;;;11.35;3.08;;;;;;;12.36;100.00;96594.25;1034828;28;20493;-70
2022/07/17 02:16:43;;;;;;;4.07;2.80;;;;;;;12.36;100.00;96591.59;1037078;28;20326;-72
2022/07/17 02:17:13;;;;;;;6.15;3.20;;;;;;;12.35;100.00;96597.94;1032197;28;20144;-73
2022/07/17 02:17:44;;;;;;;4.32;2.80;;;;;;;12.37;100.00;96595.81;1033281;28;20144;-76
2022/07/17 02:18:14;;;;;;;3.13;2.50;;;;;;;12.33;100.00;96584.22;1033751;28;20053;-72
2022/07/17 02:18:45;;;;;;;5.60;3.25;;;;;;;12.38;100.00;96586.09;1026367;28;20027;-72
2022/07/17 02:19:15;;;;;;;4.10;3.15;;;;;;;12.37;100.00;96590.56;1026384;28;20126;-72
2022/07/17 02:19:46;;;;;;;6.07;3.75;;;;;;;12.36;100.00;96593.44;1030306;28;20178;-73
2022/07/17 02:20:19;;;;;;;5.10;3.22;;;;;;;12.35;100.00;96587.41;1031527;28;20533;-74
2022/07/17 02:20:50;;;;;;;4.43;2.92;;;;;;;12.34;100.00;96587.63;1030485;28;20030;-73
2022/07/17 02:21:20;;;;;;;3.55;2.90;;;;;;;12.33;100.00;96588.69;1030374;28;20027;-73
2022/07/17 02:21:51;;;;;;;6.00;2.90;;;;;;;12.33;100.00;96588.69;1026323;28;20517;-74
2022/07/17 02:22:21;;;;;;;4.65;3.05;;;;;;;12.31;100.00;96596.84;1026643;28;20195;-73
2022/07/17 02:22:52;;;;;;;3.47;3.00;;;;;;;12.31;100.00;96585.50;1026447;28;20026;-73
2022/07/17 02:23:22;;;;;;;3.65;2.75;;;;;;;12.30;100.00;96589.97;1029061;28;20049;-72
2022/07/17 02:23:53;;;;;;;4.20;3.22;;;;;;;12.30;100.00;96589.19;1030039;28;20072;-72
2022/07/17 02:24:23;;;;;;;4.53;3.15;;;;;;;12.28;100.00;96586.81;1026370;28;20027;-73